Mare Island, California
Current Conditions -  °F | °C
As of 8:58 AM on Monday 22 Dec 2014 (Local Time) from KAPC Reporting Station
Haze Haze  
Wind Chill: 53°   Ceiling: 200
Heat Index: 53°   Visibility: 1mi
Dew Point: 53°   Wind: 3mph
Humidity: 100%   Direction: 40°NE
Pressure: 30.29"   Gusts: NA
Location:  38.1191°N, 122.313°W
Report Text: KAPC 221658Z 04003KT 1SM BR OVC002 12/12 A3029 RMK AO2 T01170117
Loading
Personal Weather Stations






























Interactive Weather Map New forecast layout! Learn more

10-Day Weather Forecast

Advertisements
Track Severe Weather on mobile